sensor_id;sensor_type;location;lat;lon;timestamp;pressure;altitude;pressure_sealevel;temperature;humidity
40920;BME280;26652;50.280;19.026;2023-04-08T00:00:51;98432.03;;;4.69;100.00
40920;BME280;26652;50.280;19.026;2023-04-08T00:03:10;98433.91;;;4.67;100.00
40920;BME280;26652;50.280;19.026;2023-04-08T00:05:19;98432.97;;;4.68;100.00
40920;BME280;26652;50.280;19.026;2023-04-08T00:07:33;98435.22;;;4.71;100.00
40920;BME280;26652;50.280;19.026;2023-04-08T00:09:51;98430.72;;;4.65;100.00
40920;BME280;26652;50.280;19.026;2023-04-08T00:12:03;98438.81;;;4.69;100.00
40920;BME280;26652;50.280;19.026;2023-04-08T00:14:16;98445.56;;;4.68;100.00
40920;BME280;26652;50.280;19.026;2023-04-08T00:16:31;98438.75;;;4.78;100.00
40920;BME280;26652;50.280;19.026;2023-04-08T00:18:37;98447.31;;;4.95;100.00
40920;BME280;26652;50.280;19.026;2023-04-08T00:20:57;98446.47;;;5.04;100.00
40920;BME280;26652;50.280;19.026;2023-04-08T00:23:10;98450.94;;;5.10;100.00
40920;BME280;26652;50.280;19.026;2023-04-08T00:25:23;98453.41;;;5.20;100.00
40920;BME280;26652;50.280;19.026;2023-04-08T00:27:32;98451.88;;;5.09;100.00
40920;BME280;26652;50.280;19.026;2023-04-08T00:29:43;98456.13;;;5.09;100.00
40920;BME280;26652;50.280;19.026;2023-04-08T00:31:52;98455.97;;;5.10;100.00
40920;BME280;26652;50.280;19.026;2023-04-08T00:34:13;98465.03;;;5.03;100.00
40920;BME280;26652;50.280;19.026;2023-04-08T00:36:25;98456.19;;;4.99;100.00
40920;BME280;26652;50.280;19.026;2023-04-08T00:38:49;98454.72;;;4.97;100.00
40920;BME280;26652;50.280;19.026;2023-04-08T00:40:58;98462.16;;;4.98;100.00
40920;BME280;26652;50.280;19.026;2023-04-08T00:43:09;98465.31;;;5.00;100.00
40920;BME280;26652;50.280;19.026;2023-04-08T00:45:34;98470.31;;;5.10;100.00
40920;BME280;26652;50.280;19.026;2023-04-08T00:47:46;98461.03;;;5.10;100.00
40920;BME280;26652;50.280;19.026;2023-04-08T00:50:01;98460.50;;;5.07;100.00
40920;BME280;26652;50.280;19.026;2023-04-08T00:52:12;98460.87;;;5.12;100.00
40920;BME280;26652;50.280;19.026;2023-04-08T00:54:17;98457.28;;;5.14;100.00
40920;BME280;26652;50.280;19.026;2023-04-08T00:56:38;98457.78;;;5.18;99.79
40920;BME280;26652;50.280;19.026;2023-04-08T00:58:47;98455.56;;;5.15;99.79
40920;BME280;26652;50.280;19.026;2023-04-08T01:01:30;98462.16;;;4.98;99.99
40920;BME280;26652;50.280;19.026;2023-04-08T01:06:40;98470.66;;;4.97;100.00
40920;BME280;26652;50.280;19.026;2023-04-08T01:08:51;98471.69;;;5.04;100.00
40920;BME280;26652;50.280;19.026;2023-04-08T01:11:01;98475.19;;;4.93;99.74
40920;BME280;26652;50.280;19.026;2023-04-08T01:13:09;98471.78;;;4.85;99.17
40920;BME280;26652;50.280;19.026;2023-04-08T01:15:23;98474.72;;;4.80;99.48
40920;BME280;26652;50.280;19.026;2023-04-08T01:17:30;98476.63;;;4.69;99.58
40920;BME280;26652;50.280;19.026;2023-04-08T01:19:41;98481.22;;;4.83;99.72
40920;BME280;26652;50.280;19.026;2023-04-08T01:21:47;98471.50;;;4.88;98.78
40920;BME280;26652;50.280;19.026;2023-04-08T01:24:05;98475.28;;;4.74;98.26
40920;BME280;26652;50.280;19.026;2023-04-08T01:26:21;98476.47;;;4.70;98.40
40920;BME280;26652;50.280;19.026;2023-04-08T01:28:34;98479.00;;;4.70;99.01
40920;BME280;26652;50.280;19.026;2023-04-08T01:30:41;98479.94;;;4.69;98.06
40920;BME280;26652;50.280;19.026;2023-04-08T01:32:56;98479.66;;;4.72;97.89
40920;BME280;26652;50.280;19.026;2023-04-08T01:35:02;98476.91;;;4.66;98.62
40920;BME280;26652;50.280;19.026;2023-04-08T01:37:16;98479.41;;;4.66;98.46
40920;BME280;26652;50.280;19.026;2023-04-08T01:39:25;98483.25;;;4.70;98.65
40920;BME280;26652;50.280;19.026;2023-04-08T01:41:36;98484.47;;;4.66;97.92
40920;BME280;26652;50.280;19.026;2023-04-08T01:43:43;98486.31;;;4.64;97.49
40920;BME280;26652;50.280;19.026;2023-04-08T01:45:54;98485.81;;;4.60;97.32
40920;BME280;26652;50.280;19.026;2023-04-08T01:48:06;98490.16;;;4.68;97.42
40920;BME280;26652;50.280;19.026;2023-04-08T01:50:27;98484.84;;;4.71;96.80
40920;BME280;26652;50.280;19.026;2023-04-08T01:52:34;98485.78;;;4.70;97.02
40920;BME280;26652;50.280;19.026;2023-04-08T01:54:44;98491.87;;;4.67;97.22
40920;BME280;26652;50.280;19.026;2023-04-08T01:56:51;98483.81;;;4.64;96.03
40920;BME280;26652;50.280;19.026;2023-04-08T01:59:07;98494.56;;;4.56;96.54
40920;BME280;26652;50.280;19.026;2023-04-08T02:01:19;98493.78;;;4.55;95.66
40920;BME280;26652;50.280;19.026;2023-04-08T02:03:29;98501.13;;;4.39;96.45
40920;BME280;26652;50.280;19.026;2023-04-08T02:05:36;98488.38;;;4.41;97.94
40920;BME280;26652;50.280;19.026;2023-04-08T02:07:48;98491.81;;;4.49;98.04
40920;BME280;26652;50.280;19.026;2023-04-08T02:10:01;98492.22;;;4.45;96.71
40920;BME280;26652;50.280;19.026;2023-04-08T02:12:09;98495.53;;;4.45;96.18
40920;BME280;26652;50.280;19.026;2023-04-08T02:14:15;98492.34;;;4.43;95.89
40920;BME280;26652;50.280;19.026;2023-04-08T02:16:52;98500.97;;;4.50;95.85
40920;BME280;26652;50.280;19.026;2023-04-08T02:19:23;98498.47;;;4.31;96.72
40920;BME280;26652;50.280;19.026;2023-04-08T02:21:48;98499.91;;;4.43;96.56
40920;BME280;26652;50.280;19.026;2023-04-08T02:23:57;98502.72;;;4.40;95.79
40920;BME280;26652;50.280;19.026;2023-04-08T02:26:13;98500.72;;;4.34;96.18
40920;BME280;26652;50.280;19.026;2023-04-08T02:28:18;98501.69;;;4.23;96.01
40920;BME280;26652;50.280;19.026;2023-04-08T02:30:31;98498.53;;;4.12;96.49
40920;BME280;26652;50.280;19.026;2023-04-08T02:32:38;98505.84;;;4.05;97.23
40920;BME280;26652;50.280;19.026;2023-04-08T02:34:54;98507.97;;;4.10;97.45
40920;BME280;26652;50.280;19.026;2023-04-08T02:37:02;98504.59;;;4.19;97.05
40920;BME280;26652;50.280;19.026;2023-04-08T02:39:38;98502.22;;;4.17;96.75
40920;BME280;26652;50.280;19.026;2023-04-08T02:41:57;98496.97;;;4.11;96.65
40920;BME280;26652;50.280;19.026;2023-04-08T02:44:11;98508.19;;;4.16;96.50
40920;BME280;26652;50.280;19.026;2023-04-08T02:46:28;98512.16;;;4.19;96.13
40920;BME280;26652;50.280;19.026;2023-04-08T02:48:52;98499.34;;;4.03;97.19
40920;BME280;26652;50.280;19.026;2023-04-08T02:51:02;98514.72;;;4.09;97.44
40920;BME280;26652;50.280;19.026;2023-04-08T02:53:28;98509.94;;;4.06;96.88
40920;BME280;26652;50.280;19.026;2023-04-08T02:55:40;98513.25;;;4.07;96.56
40920;BME280;26652;50.280;19.026;2023-04-08T02:57:51;98508.50;;;3.94;98.16
40920;BME280;26652;50.280;19.026;2023-04-08T03:00:19;98517.78;;;3.93;98.13
40920;BME280;26652;50.280;19.026;2023-04-08T03:02:30;98518.84;;;3.91;97.85
40920;BME280;26652;50.280;19.026;2023-04-08T03:04:39;98520.16;;;3.95;98.08
40920;BME280;26652;50.280;19.026;2023-04-08T03:06:52;98522.81;;;3.93;97.26
40920;BME280;26652;50.280;19.026;2023-04-08T03:09:04;98529.44;;;3.85;97.52
40920;BME280;26652;50.280;19.026;2023-04-08T03:11:18;98529.03;;;3.70;98.14
40920;BME280;26652;50.280;19.026;2023-04-08T03:13:27;98532.47;;;3.69;99.67
40920;BME280;26652;50.280;19.026;2023-04-08T03:15:42;98527.44;;;3.69;99.28
40920;BME280;26652;50.280;19.026;2023-04-08T03:18:01;98542.81;;;3.66;99.40
40920;BME280;26652;50.280;19.026;2023-04-08T03:20:10;98527.69;;;3.66;99.31
40920;BME280;26652;50.280;19.026;2023-04-08T03:22:19;98528.09;;;3.61;98.44
40920;BME280;26652;50.280;19.026;2023-04-08T03:24:51;98525.72;;;3.60;99.05
40920;BME280;26652;50.280;19.026;2023-04-08T03:27:08;98529.94;;;3.59;99.27
40920;BME280;26652;50.280;19.026;2023-04-08T03:29:28;98538.16;;;3.61;99.50
40920;BME280;26652;50.280;19.026;2023-04-08T03:31:52;98536.06;;;3.76;99.34
40920;BME280;26652;50.280;19.026;2023-04-08T03:34:04;98537.25;;;3.82;99.59
40920;BME280;26652;50.280;19.026;2023-04-08T03:36:22;98543.47;;;3.78;99.20
40920;BME280;26652;50.280;19.026;2023-04-08T03:38:36;98547.84;;;3.76;98.68
40920;BME280;26652;50.280;19.026;2023-04-08T03:41:02;98550.75;;;3.81;98.82
40920;BME280;26652;50.280;19.026;2023-04-08T03:43:20;98548.13;;;3.82;98.61
40920;BME280;26652;50.280;19.026;2023-04-08T03:45:28;98552.34;;;3.82;98.72
40920;BME280;26652;50.280;19.026;2023-04-08T03:47:42;98550.22;;;3.77;98.66
40920;BME280;26652;50.280;19.026;2023-04-08T03:49:53;98553.00;;;3.74;99.18
40920;BME280;26652;50.280;19.026;2023-04-08T03:52:05;98552.59;;;3.69;99.46
40920;BME280;26652;50.280;19.026;2023-04-08T03:54:11;98553.66;;;3.57;100.00
40920;BME280;26652;50.280;19.026;2023-04-08T03:56:29;98557.34;;;3.53;100.00
40920;BME280;26652;50.280;19.026;2023-04-08T03:58:37;98556.69;;;3.51;100.00
40920;BME280;26652;50.280;19.026;2023-04-08T04:00:55;98550.34;;;3.66;100.00
40920;BME280;26652;50.280;19.026;2023-04-08T04:03:10;98555.66;;;3.63;100.00
40920;BME280;26652;50.280;19.026;2023-04-08T04:05:24;98564.25;;;3.70;99.95
40920;BME280;26652;50.280;19.026;2023-04-08T04:07:39;98563.34;;;3.81;99.40
40920;BME280;26652;50.280;19.026;2023-04-08T04:09:50;98567.59;;;3.80;99.83
40920;BME280;26652;50.280;19.026;2023-04-08T04:11:59;98567.72;;;3.79;99.26
40920;BME280;26652;50.280;19.026;2023-04-08T04:14:24;98573.81;;;3.76;98.96
40920;BME280;26652;50.280;19.026;2023-04-08T04:16:38;98575.00;;;3.82;99.40
40920;BME280;26652;50.280;19.026;2023-04-08T04:18:52;98576.88;;;3.80;98.46
40920;BME280;26652;50.280;19.026;2023-04-08T04:21:08;98577.00;;;3.78;98.76
40920;BME280;26652;50.280;19.026;2023-04-08T04:23:24;98586.25;;;3.78;98.75
40920;BME280;26652;50.280;19.026;2023-04-08T04:25:33;98584.28;;;3.81;99.11
40920;BME280;26652;50.280;19.026;2023-04-08T04:27:44;98593.81;;;3.78;99.40
40920;BME280;26652;50.280;19.026;2023-04-08T04:30:00;98588.41;;;3.92;98.67
40920;BME280;26652;50.280;19.026;2023-04-08T04:32:18;98588.94;;;3.96;98.41
40920;BME280;26652;50.280;19.026;2023-04-08T04:34:27;98592.78;;;4.00;98.24
40920;BME280;26652;50.280;19.026;2023-04-08T04:36:51;98590.00;;;4.03;97.56
40920;BME280;26652;50.280;19.026;2023-04-08T04:39:06;98593.59;;;4.00;97.59
40920;BME280;26652;50.280;19.026;2023-04-08T04:41:24;98596.75;;;4.02;96.88
40920;BME280;26652;50.280;19.026;2023-04-08T04:43:46;98597.97;;;4.08;97.05
40920;BME280;26652;50.280;19.026;2023-04-08T04:46:00;98598.63;;;4.10;97.08
40920;BME280;26652;50.280;19.026;2023-04-08T04:48:18;98603.12;;;4.06;97.08
40920;BME280;26652;50.280;19.026;2023-04-08T04:50:30;98606.03;;;4.11;96.79
40920;BME280;26652;50.280;19.026;2023-04-08T04:52:47;98604.44;;;4.10;96.92
40920;BME280;26652;50.280;19.026;2023-04-08T04:54:59;98607.09;;;4.09;97.71
40920;BME280;26652;50.280;19.026;2023-04-08T04:57:08;98616.34;;;4.27;96.98
40920;BME280;26652;50.280;19.026;2023-04-08T04:59:33;98617.03;;;4.30;96.41
40920;BME280;26652;50.280;19.026;2023-04-08T05:01:39;98612.78;;;4.30;96.39
40920;BME280;26652;50.280;19.026;2023-04-08T05:03:50;98613.84;;;4.37;95.90
40920;BME280;26652;50.280;19.026;2023-04-08T05:05:59;98619.28;;;4.42;95.23
40920;BME280;26652;50.280;19.026;2023-04-08T05:08:30;98611.84;;;4.21;95.11
40920;BME280;26652;50.280;19.026;2023-04-08T05:10:41;98623.38;;;4.43;95.04
40920;BME280;26652;50.280;19.026;2023-04-08T05:12:54;98622.06;;;4.39;94.51
40920;BME280;26652;50.280;19.026;2023-04-08T05:15:02;98633.19;;;4.27;95.40
40920;BME280;26652;50.280;19.026;2023-04-08T05:17:24;98634.66;;;4.39;94.65
40920;BME280;26652;50.280;19.026;2023-04-08T05:19:33;98628.03;;;4.48;93.91
40920;BME280;26652;50.280;19.026;2023-04-08T05:21:45;98624.97;;;4.44;93.75
40920;BME280;26652;50.280;19.026;2023-04-08T05:23:53;98624.56;;;4.49;93.03
40920;BME280;26652;50.280;19.026;2023-04-08T05:26:22;98639.16;;;4.45;92.97
40920;BME280;26652;50.280;19.026;2023-04-08T05:28:37;98632.41;;;4.46;93.05
40920;BME280;26652;50.280;19.026;2023-04-08T05:30:58;98644.06;;;4.47;93.92
40920;BME280;26652;50.280;19.026;2023-04-08T05:33:07;98638.25;;;4.46;93.40
40920;BME280;26652;50.280;19.026;2023-04-08T05:35:27;98632.28;;;4.38;93.59
40920;BME280;26652;50.280;19.026;2023-04-08T05:37:33;98640.22;;;4.43;93.60
40920;BME280;26652;50.280;19.026;2023-04-08T05:39:48;98658.00;;;4.60;93.82
40920;BME280;26652;50.280;19.026;2023-04-08T05:42:01;98639.53;;;4.70;93.27
40920;BME280;26652;50.280;19.026;2023-04-08T05:44:24;98653.19;;;4.77;92.40
40920;BME280;26652;50.280;19.026;2023-04-08T05:46:33;98647.59;;;4.92;91.46
40920;BME280;26652;50.280;19.026;2023-04-08T05:48:48;98654.50;;;5.00;91.06
40920;BME280;26652;50.280;19.026;2023-04-08T05:50:57;98657.66;;;5.02;90.60
40920;BME280;26652;50.280;19.026;2023-04-08T05:53:10;98666.16;;;5.01;90.73
40920;BME280;26652;50.280;19.026;2023-04-08T05:55:18;98667.09;;;5.00;89.86
40920;BME280;26652;50.280;19.026;2023-04-08T05:57:32;98669.88;;;5.07;88.91
40920;BME280;26652;50.280;19.026;2023-04-08T05:59:50;98672.59;;;5.23;89.29
40920;BME280;26652;50.280;19.026;2023-04-08T06:02:02;98665.09;;;5.41;88.49
40920;BME280;26652;50.280;19.026;2023-04-08T06:04:08;98658.03;;;5.44;87.02
40920;BME280;26652;50.280;19.026;2023-04-08T06:06:24;98670.62;;;5.54;86.73
40920;BME280;26652;50.280;19.026;2023-04-08T06:08:39;98674.84;;;5.63;86.75
40920;BME280;26652;50.280;19.026;2023-04-08T06:10:57;98665.19;;;5.49;85.97
40920;BME280;26652;50.280;19.026;2023-04-08T06:13:08;98673.94;;;5.54;87.23
40920;BME280;26652;50.280;19.026;2023-04-08T06:15:21;98685.84;;;5.35;86.71
40920;BME280;26652;50.280;19.026;2023-04-08T06:17:27;98683.19;;;5.26;87.31
40920;BME280;26652;50.280;19.026;2023-04-08T06:19:51;98680.28;;;5.31;88.10
40920;BME280;26652;50.280;19.026;2023-04-08T06:22:00;98690.50;;;5.67;87.47
40920;BME280;26652;50.280;19.026;2023-04-08T06:24:15;98692.94;;;5.86;85.11
40920;BME280;26652;50.280;19.026;2023-04-08T06:26:30;98693.53;;;6.07;84.40
40920;BME280;26652;50.280;19.026;2023-04-08T06:28:45;98691.72;;;6.35;84.34
40920;BME280;26652;50.280;19.026;2023-04-08T06:30:54;98702.84;;;6.42;83.53
40920;BME280;26652;50.280;19.026;2023-04-08T06:33:14;98704.44;;;6.61;83.43
40920;BME280;26652;50.280;19.026;2023-04-08T06:35:22;98704.06;;;6.20;82.73
40920;BME280;26652;50.280;19.026;2023-04-08T06:37:34;98704.06;;;6.20;82.00
40920;BME280;26652;50.280;19.026;2023-04-08T06:39:58;98715.03;;;6.29;81.81
40920;BME280;26652;50.280;19.026;2023-04-08T06:42:17;98713.16;;;6.31;81.45
40920;BME280;26652;50.280;19.026;2023-04-08T06:44:39;98713.91;;;6.23;81.86
40920;BME280;26652;50.280;19.026;2023-04-08T06:46:51;98721.97;;;6.09;80.60
40920;BME280;26652;50.280;19.026;2023-04-08T06:49:12;98724.34;;;6.11;81.50
40920;BME280;26652;50.280;19.026;2023-04-08T06:51:29;98733.75;;;6.18;81.12
40920;BME280;26652;50.280;19.026;2023-04-08T06:53:44;98728.91;;;6.43;79.51
40920;BME280;26652;50.280;19.026;2023-04-08T06:56:05;98727.19;;;6.61;78.46
40920;BME280;26652;50.280;19.026;2023-04-08T06:58:17;98721.41;;;6.33;77.98
40920;BME280;26652;50.280;19.026;2023-04-08T07:00:31;98731.72;;;6.40;79.65
40920;BME280;26652;50.280;19.026;2023-04-08T07:02:46;98723.62;;;6.36;79.70
40920;BME280;26652;50.280;19.026;2023-04-08T07:05:00;98722.78;;;7.93;77.29
40920;BME280;26652;50.280;19.026;2023-04-08T07:07:09;98731.91;;;9.41;70.48
40920;BME280;26652;50.280;19.026;2023-04-08T07:09:25;98735.91;;;10.22;67.56
40920;BME280;26652;50.280;19.026;2023-04-08T07:11:39;98734.06;;;10.39;66.63
40920;BME280;26652;50.280;19.026;2023-04-08T07:13:53;98747.66;;;9.84;63.79
40920;BME280;26652;50.280;19.026;2023-04-08T07:16:01;98751.09;;;9.52;64.09
40920;BME280;26652;50.280;19.026;2023-04-08T07:18:22;98754.03;;;9.80;64.69
40920;BME280;26652;50.280;19.026;2023-04-08T07:20:30;98752.56;;;10.78;61.12
40920;BME280;26652;50.280;19.026;2023-04-08T07:22:53;98758.22;;;11.41;59.52
40920;BME280;26652;50.280;19.026;2023-04-08T07:25:02;98756.56;;;12.43;58.93
40920;BME280;26652;50.280;19.026;2023-04-08T07:27:23;98772.41;;;13.52;54.45
40920;BME280;26652;50.280;19.026;2023-04-08T07:29:31;98766.31;;;14.48;50.87
40920;BME280;26652;50.280;19.026;2023-04-08T07:31:45;98769.09;;;14.86;49.64
40920;BME280;26652;50.280;19.026;2023-04-08T07:33:59;98767.88;;;14.49;50.51
40920;BME280;26652;50.280;19.026;2023-04-08T07:36:13;98770.28;;;15.30;49.11
40920;BME280;26652;50.280;19.026;2023-04-08T07:38:20;98772.22;;;15.54;48.03
40920;BME280;26652;50.280;19.026;2023-04-08T07:40:51;98785.28;;;15.26;47.45
40920;BME280;26652;50.280;19.026;2023-04-08T07:43:06;98777.91;;;13.96;49.00
40920;BME280;26652;50.280;19.026;2023-04-08T07:45:23;98772.03;;;14.02;48.75
40920;BME280;26652;50.280;19.026;2023-04-08T07:47:33;98775.28;;;13.42;49.46
40920;BME280;26652;50.280;19.026;2023-04-08T07:49:46;98777.22;;;12.12;52.03
40920;BME280;26652;50.280;19.026;2023-04-08T07:51:54;98785.69;;;11.98;52.52
40920;BME280;26652;50.280;19.026;2023-04-08T07:54:08;98767.63;;;11.26;54.56
40920;BME280;26652;50.280;19.026;2023-04-08T07:56:26;98775.84;;;11.95;54.51
40920;BME280;26652;50.280;19.026;2023-04-08T07:58:40;98767.59;;;12.29;54.24
40920;BME280;26652;50.280;19.026;2023-04-08T08:01:16;98773.34;;;13.44;52.27
40920;BME280;26652;50.280;19.026;2023-04-08T08:03:32;98772.78;;;13.21;50.60
40920;BME280;26652;50.280;19.026;2023-04-08T08:05:41;98772.88;;;13.13;51.12
40920;BME280;26652;50.280;19.026;2023-04-08T08:07:55;98784.97;;;13.53;49.89
40920;BME280;26652;50.280;19.026;2023-04-08T08:10:03;98768.47;;;12.78;53.13
40920;BME280;26652;50.280;19.026;2023-04-08T08:12:17;98785.78;;;12.83;51.60
40920;BME280;26652;50.280;19.026;2023-04-08T08:14:25;98770.03;;;12.01;53.33
40920;BME280;26652;50.280;19.026;2023-04-08T08:16:47;98785.34;;;12.37;52.55
40920;BME280;26652;50.280;19.026;2023-04-08T08:18:57;98774.37;;;12.22;54.34
40920;BME280;26652;50.280;19.026;2023-04-08T08:21:22;98776.78;;;12.08;53.30
40920;BME280;26652;50.280;19.026;2023-04-08T08:23:30;98777.62;;;12.52;51.16
40920;BME280;26652;50.280;19.026;2023-04-08T08:25:40;98785.28;;;12.52;52.38
40920;BME280;26652;50.280;19.026;2023-04-08T08:27:49;98782.00;;;12.36;53.23
40920;BME280;26652;50.280;19.026;2023-04-08T08:30:06;98780.78;;;12.32;53.03
40920;BME280;26652;50.280;19.026;2023-04-08T08:32:12;98781.28;;;12.42;53.49
40920;BME280;26652;50.280;19.026;2023-04-08T08:34:30;98784.00;;;12.05;54.84
40920;BME280;26652;50.280;19.026;2023-04-08T08:36:42;98782.91;;;12.29;53.89
40920;BME280;26652;50.280;19.026;2023-04-08T08:39:02;98784.94;;;12.97;53.45
40920;BME280;26652;50.280;19.026;2023-04-08T08:41:14;98790.09;;;13.04;51.12
40920;BME280;26652;50.280;19.026;2023-04-08T08:43:27;98789.03;;;12.92;51.35
40920;BME280;26652;50.280;19.026;2023-04-08T08:45:41;98789.87;;;12.99;51.70
40920;BME280;26652;50.280;19.026;2023-04-08T08:47:50;98783.97;;;13.20;51.39
40920;BME280;26652;50.280;19.026;2023-04-08T08:49:58;98793.31;;;13.13;52.24
40920;BME280;26652;50.280;19.026;2023-04-08T08:52:16;98795.22;;;13.04;53.45
40920;BME280;26652;50.280;19.026;2023-04-08T08:54:21;98799.34;;;13.05;50.93
40920;BME280;26652;50.280;19.026;2023-04-08T08:56:49;98802.78;;;12.33;53.84
40920;BME280;26652;50.280;19.026;2023-04-08T08:58:57;98804.97;;;11.33;56.75
40920;BME280;26652;50.280;19.026;2023-04-08T09:01:32;98805.22;;;11.24;56.56
40920;BME280;26652;50.280;19.026;2023-04-08T09:03:37;98810.31;;;11.91;55.28
40920;BME280;26652;50.280;19.026;2023-04-08T09:06:10;98809.19;;;12.44;55.34
40920;BME280;26652;50.280;19.026;2023-04-08T09:08:32;98804.78;;;11.50;55.68
40920;BME280;26652;50.280;19.026;2023-04-08T09:11:18;98813.44;;;11.63;55.82
40920;BME280;26652;50.280;19.026;2023-04-08T09:13:34;98812.69;;;12.07;55.18
40920;BME280;26652;50.280;19.026;2023-04-08T09:16:18;98817.75;;;12.58;55.13
40920;BME280;26652;50.280;19.026;2023-04-08T09:18:28;98817.53;;;12.02;54.98
40920;BME280;26652;50.280;19.026;2023-04-08T09:20:52;98815.56;;;12.19;56.30
40920;BME280;26652;50.280;19.026;2023-04-08T09:23:01;98827.63;;;12.25;55.71
40920;BME280;26652;50.280;19.026;2023-04-08T09:25:26;98828.66;;;12.45;54.53
40920;BME280;26652;50.280;19.026;2023-04-08T09:27:39;98823.16;;;12.12;55.81
40920;BME280;26652;50.280;19.026;2023-04-08T09:29:55;98818.91;;;12.34;58.55
40920;BME280;26652;50.280;19.026;2023-04-08T09:32:17;98822.63;;;11.87;55.73
40920;BME280;26652;50.280;19.026;2023-04-08T09:34:30;98832.66;;;11.51;56.29
40920;BME280;26652;50.280;19.026;2023-04-08T09:36:38;98831.69;;;11.52;55.81
40920;BME280;26652;50.280;19.026;2023-04-08T09:38:57;98829.53;;;11.64;54.91
40920;BME280;26652;50.280;19.026;2023-04-08T09:41:15;98824.75;;;11.46;57.12
40920;BME280;26652;50.280;19.026;2023-04-08T09:43:29;98828.25;;;11.45;57.06
40920;BME280;26652;50.280;19.026;2023-04-08T09:45:47;98821.41;;;11.31;56.15
40920;BME280;26652;50.280;19.026;2023-04-08T09:48:16;98823.78;;;11.32;56.29
40920;BME280;26652;50.280;19.026;2023-04-08T09:50:31;98828.09;;;11.32;57.43
40920;BME280;26652;50.280;19.026;2023-04-08T09:52:47;98827.31;;;11.08;57.82
40920;BME280;26652;50.280;19.026;2023-04-08T09:55:04;98830.66;;;11.09;57.11
40920;BME280;26652;50.280;19.026;2023-04-08T10:00:02;98828.38;;;11.14;57.35
40920;BME280;26652;50.280;19.026;2023-04-08T10:02:29;98832.94;;;11.41;57.99
40920;BME280;26652;50.280;19.026;2023-04-08T10:04:40;98826.78;;;11.65;55.87
40920;BME280;26652;50.280;19.026;2023-04-08T10:07:03;98821.63;;;11.73;55.80
40920;BME280;26652;50.280;19.026;2023-04-08T10:09:10;98825.34;;;12.15;53.95
40920;BME280;26652;50.280;19.026;2023-04-08T10:11:22;98836.16;;;12.32;52.55
40920;BME280;26652;50.280;19.026;2023-04-08T10:13:30;98823.12;;;12.41;53.59
40920;BME280;26652;50.280;19.026;2023-04-08T10:15:46;98838.09;;;12.30;53.84
40920;BME280;26652;50.280;19.026;2023-04-08T10:17:56;98837.38;;;12.36;53.04
40920;BME280;26652;50.280;19.026;2023-04-08T10:20:41;98841.81;;;12.13;53.13
40920;BME280;26652;50.280;19.026;2023-04-08T10:22:47;98838.53;;;12.19;52.13
40920;BME280;26652;50.280;19.026;2023-04-08T10:25:33;98843.56;;;12.27;51.78
40920;BME280;26652;50.280;19.026;2023-04-08T10:27:41;98840.47;;;12.02;52.95
40920;BME280;26652;50.280;19.026;2023-04-08T10:29:50;98833.81;;;12.01;51.61
40920;BME280;26652;50.280;19.026;2023-04-08T10:31:58;98842.34;;;12.08;52.30
40920;BME280;26652;50.280;19.026;2023-04-08T10:34:22;98834.31;;;12.11;52.35
40920;BME280;26652;50.280;19.026;2023-04-08T10:36:28;98839.78;;;12.23;51.19
40920;BME280;26652;50.280;19.026;2023-04-08T10:38:43;98851.56;;;12.09;51.62
40920;BME280;26652;50.280;19.026;2023-04-08T10:40:54;98846.75;;;12.86;51.05
40920;BME280;26652;50.280;19.026;2023-04-08T10:43:14;98848.78;;;13.96;48.16
40920;BME280;26652;50.280;19.026;2023-04-08T10:45:25;98858.41;;;14.28;46.75
40920;BME280;26652;50.280;19.026;2023-04-08T10:47:42;98862.41;;;15.12;44.77
40920;BME280;26652;50.280;19.026;2023-04-08T10:50:11;98860.00;;;14.90;45.27
40920;BME280;26652;50.280;19.026;2023-04-08T10:52:22;98851.16;;;15.39;43.56
40920;BME280;26652;50.280;19.026;2023-04-08T10:54:47;98855.50;;;15.72;42.66
40920;BME280;26652;50.280;19.026;2023-04-08T10:57:03;98869.72;;;15.67;43.30
40920;BME280;26652;50.280;19.026;2023-04-08T10:59:16;98854.31;;;16.39;42.49
40920;BME280;26652;50.280;19.026;2023-04-08T11:01:25;98865.81;;;16.74;42.81
40920;BME280;26652;50.280;19.026;2023-04-08T11:03:35;98853.69;;;15.85;43.84
40920;BME280;26652;50.280;19.026;2023-04-08T11:05:49;98855.69;;;15.17;44.53
40920;BME280;26652;50.280;19.026;2023-04-08T11:08:09;98844.19;;;14.19;47.13
40920;BME280;26652;50.280;19.026;2023-04-08T11:10:21;98854.88;;;13.95;47.99
40920;BME280;26652;50.280;19.026;2023-04-08T11:12:29;98856.41;;;13.55;48.19
40920;BME280;26652;50.280;19.026;2023-04-08T11:14:43;98851.66;;;13.24;49.86
40920;BME280;26652;50.280;19.026;2023-04-08T11:16:49;98845.34;;;12.84;50.37
40920;BME280;26652;50.280;19.026;2023-04-08T11:19:02;98853.16;;;12.61;51.39
40920;BME280;26652;50.280;19.026;2023-04-08T11:21:11;98843.66;;;12.55;51.34
40920;BME280;26652;50.280;19.026;2023-04-08T11:23:42;98848.91;;;12.32;54.08
40920;BME280;26652;50.280;19.026;2023-04-08T11:25:56;98840.50;;;12.53;52.10
40920;BME280;26652;50.280;19.026;2023-04-08T11:28:07;98850.59;;;12.61;51.70
40920;BME280;26652;50.280;19.026;2023-04-08T11:30:14;98851.06;;;12.50;52.82
40920;BME280;26652;50.280;19.026;2023-04-08T11:32:35;98834.84;;;12.21;52.14
40920;BME280;26652;50.280;19.026;2023-04-08T11:34:45;98841.44;;;12.01;53.54
40920;BME280;26652;50.280;19.026;2023-04-08T11:36:56;98835.13;;;11.82;53.36
40920;BME280;26652;50.280;19.026;2023-04-08T11:39:09;98839.94;;;11.77;54.21
40920;BME280;26652;50.280;19.026;2023-04-08T11:41:20;98848.84;;;11.58;53.94
40920;BME280;26652;50.280;19.026;2023-04-08T11:43:35;98851.47;;;11.50;54.96
40920;BME280;26652;50.280;19.026;2023-04-08T11:45:53;98847.97;;;11.51;54.23
40920;BME280;26652;50.280;19.026;2023-04-08T11:48:10;98847.50;;;11.47;55.08
40920;BME280;26652;50.280;19.026;2023-04-08T11:50:27;98848.75;;;11.52;54.33
40920;BME280;26652;50.280;19.026;2023-04-08T11:52:49;98846.09;;;11.45;53.62
40920;BME280;26652;50.280;19.026;2023-04-08T11:54:59;98840.53;;;11.27;54.19